createdAt,value
2018-03-24T00:01:01.600Z,99656.54
2018-03-24T00:03:29.237Z,99655.58
2018-03-24T00:05:56.772Z,99654.42
2018-03-24T00:08:25.112Z,99652.92
2018-03-24T00:10:53.296Z,99647.56
2018-03-24T00:13:20.850Z,99655.88
2018-03-24T00:15:48.445Z,99658.03
2018-03-24T00:18:17.165Z,99651.17
2018-03-24T00:20:44.854Z,99653.30
2018-03-24T00:26:43.664Z,99655.03
2018-03-24T00:29:11.274Z,99649.67
2018-03-24T00:31:38.906Z,99651.75
2018-03-24T00:34:06.677Z,99652.40
2018-03-24T00:36:34.407Z,99647.28
2018-03-24T00:39:02.370Z,99644.73
2018-03-24T00:41:30.660Z,99643.65
2018-03-24T00:43:58.280Z,99646.52
2018-03-24T00:46:25.873Z,99645.71
2018-03-24T00:48:53.535Z,99644.63
2018-03-24T00:51:21.561Z,99644.61
2018-03-24T00:53:49.217Z,99640.56
2018-03-24T00:56:17.320Z,99649.94
2018-03-24T00:58:44.959Z,99641.47
2018-03-24T01:01:13.326Z,99636.36
2018-03-24T01:03:40.889Z,99638.89
2018-03-24T01:06:08.807Z,99640.52
2018-03-24T01:08:37.241Z,99636.06
2018-03-24T01:11:06.172Z,99636.66
2018-03-24T01:13:34.477Z,99630.05
2018-03-24T01:16:02.196Z,99630.96
2018-03-24T01:18:30.525Z,99633.10
2018-03-24T01:20:58.184Z,99643.07
2018-03-24T01:23:26.653Z,99637.16
2018-03-24T01:25:54.564Z,99632.86
2018-03-24T01:28:22.189Z,99629.76
2018-03-24T01:30:49.861Z,99627.30
2018-03-24T01:33:17.482Z,99624.92
2018-03-24T01:35:47.402Z,99622.84
2018-03-24T01:38:15.124Z,99617.67
2018-03-24T01:40:43.516Z,99618.42
2018-03-24T01:43:11.126Z,99622.22
2018-03-24T01:45:38.758Z,99625.75
2018-03-24T01:48:07.350Z,99616.53
2018-03-24T01:50:36.086Z,99609.45
2018-03-24T01:53:04.936Z,99607.22
2018-03-24T01:55:33.143Z,99610.28
2018-03-24T01:58:00.731Z,99617.25
2018-03-24T02:00:29.203Z,99606.55
2018-03-24T02:02:57.501Z,99602.98
2018-03-24T02:05:25.097Z,99606.69
2018-03-24T02:07:52.708Z,99606.75
2018-03-24T02:10:20.939Z,99600.89
2018-03-24T02:12:48.989Z,99597.36
2018-03-24T02:15:16.729Z,99600.88
2018-03-24T02:17:45.152Z,99597.16
2018-03-24T02:20:14.528Z,99590.14
2018-03-24T02:22:42.143Z,99590.23
2018-03-24T02:25:09.878Z,99577.28
2018-03-24T02:27:37.513Z,99576.20
2018-03-24T02:30:05.949Z,99577.49
2018-03-24T02:32:33.544Z,99571.79
2018-03-24T02:35:01.177Z,99572.70
2018-03-24T02:37:29.544Z,99570.11
2018-03-24T02:39:57.137Z,99574.11
2018-03-24T02:42:24.697Z,99570.24
2018-03-24T02:44:52.917Z,99573.52
2018-03-24T02:47:20.471Z,99563.72
2018-03-24T02:49:48.326Z,99558.20
2018-03-24T02:52:16.646Z,99564.77
2018-03-24T02:54:44.202Z,99566.31
2018-03-24T02:57:11.815Z,99566.50
2018-03-24T02:59:40.366Z,99559.10
2018-03-24T03:02:08.672Z,99563.61
2018-03-24T03:04:36.664Z,99558.69
2018-03-24T03:07:06.117Z,99561.80
2018-03-24T03:09:36.116Z,99562.38
2018-03-24T03:12:06.165Z,99559.48
2018-03-24T03:14:33.753Z,99551.97
2018-03-24T03:17:02.629Z,99552.62
2018-03-24T03:19:31.141Z,99553.78
2018-03-24T03:21:58.943Z,99550.55
2018-03-24T03:24:26.913Z,99552.66
2018-03-24T03:26:54.676Z,99551.16
2018-03-24T03:29:22.313Z,99555.93
2018-03-24T03:32:01.449Z,99550.90
2018-03-24T03:34:29.741Z,99552.44
2018-03-24T03:36:57.599Z,99548.34
2018-03-24T03:39:25.187Z,99549.28
2018-03-24T03:41:52.767Z,99548.20
2018-03-24T03:44:20.408Z,99551.31
2018-03-24T03:46:48.884Z,99557.63
2018-03-24T03:49:16.945Z,99555.56
2018-03-24T03:51:45.569Z,99560.92
2018-03-24T03:54:13.161Z,99557.05
2018-03-24T03:56:40.713Z,99551.69
2018-03-24T03:59:08.335Z,99553.16
2018-03-24T04:01:36.836Z,99550.83
2018-03-24T04:04:05.711Z,99547.86
2018-03-24T04:06:33.392Z,99539.06
2018-03-24T04:09:01.608Z,99544.55
2018-03-24T04:11:29.511Z,99539.44
2018-03-24T04:13:57.511Z,99533.40
2018-03-24T04:16:25.121Z,99529.94
2018-03-24T04:18:53.418Z,99529.48
2018-03-24T04:21:21.009Z,99525.44
2018-03-24T04:23:48.736Z,99524.00
2018-03-24T04:26:16.481Z,99516.94
2018-03-24T04:28:45.220Z,99521.03
2018-03-24T04:31:14.507Z,99516.41
2018-03-24T04:33:42.090Z,99513.86
2018-03-24T04:36:09.753Z,99512.47
2018-03-24T04:38:37.432Z,99512.36
2018-03-24T04:41:06.157Z,99514.98
2018-03-24T04:43:34.086Z,99508.61
2018-03-24T04:46:02.273Z,99509.09
2018-03-24T04:48:29.845Z,99512.47
2018-03-24T04:50:58.246Z,99513.79
2018-03-24T04:53:26.649Z,99519.94
2018-03-24T04:55:54.275Z,99520.43
2018-03-24T04:58:21.882Z,99510.27
2018-03-24T05:00:50.336Z,99526.44
2018-03-24T05:03:18.828Z,99524.14
2018-03-24T05:05:47.427Z,99521.63
2018-03-24T05:08:15.589Z,99525.58
2018-03-24T05:10:43.209Z,99528.73
2018-03-24T05:13:11.386Z,99525.39
2018-03-24T05:15:38.981Z,99538.80
2018-03-24T05:18:07.362Z,99534.48
2018-03-24T05:20:35.842Z,99530.40
2018-03-24T05:23:03.405Z,99533.92
2018-03-24T05:25:31.003Z,99532.80
2018-03-24T05:27:58.596Z,99530.33
2018-03-24T05:30:27.248Z,99534.41
2018-03-24T05:32:54.880Z,99541.62
2018-03-24T05:35:22.469Z,99532.41
2018-03-24T05:37:50.365Z,99538.88
2018-03-24T05:40:17.987Z,99534.57
2018-03-24T05:42:45.556Z,99528.23
2018-03-24T05:45:13.673Z,99523.31
2018-03-24T05:47:41.252Z,99532.55
2018-03-24T05:50:09.457Z,99525.83
2018-03-24T05:52:37.744Z,99529.32
2018-03-24T05:55:06.562Z,99532.30
2018-03-24T05:57:35.675Z,99536.94
2018-03-24T06:00:05.133Z,99537.35
2018-03-24T06:02:33.275Z,99537.35
2018-03-24T06:05:00.840Z,99539.41
2018-03-24T06:07:28.392Z,99529.23
2018-03-24T06:09:56.439Z,99530.56
2018-03-24T06:12:24.650Z,99529.55
2018-03-24T06:14:52.623Z,99532.48
2018-03-24T06:17:20.369Z,99533.31
2018-03-24T06:19:48.855Z,99530.92
2018-03-24T06:22:16.380Z,99520.99
2018-03-24T06:24:43.909Z,99527.58
2018-03-24T06:27:12.090Z,99523.83
2018-03-24T06:29:39.639Z,99527.38
2018-03-24T06:32:07.206Z,99530.42
2018-03-24T06:34:35.461Z,99529.19
2018-03-24T06:37:14.824Z,99532.77
2018-03-24T06:39:42.411Z,99529.63
2018-03-24T06:42:09.975Z,99527.61
2018-03-24T06:44:38.496Z,99539.31
2018-03-24T06:47:06.291Z,99547.27
2018-03-24T06:49:34.302Z,99546.70
2018-03-24T06:52:02.301Z,99552.24
2018-03-24T06:54:29.860Z,99551.75
2018-03-24T06:56:57.446Z,99549.82
2018-03-24T06:59:25.080Z,99548.98
2018-03-24T07:01:53.383Z,99549.45
2018-03-24T07:04:20.944Z,99555.48
2018-03-24T07:06:48.476Z,99550.18
2018-03-24T07:09:16.549Z,99547.95
2018-03-24T07:11:44.698Z,99539.38
2018-03-24T07:14:12.237Z,99536.60
2018-03-24T07:16:39.752Z,99539.06
2018-03-24T07:19:07.686Z,99542.49
2018-03-24T07:21:36.419Z,99537.63
2018-03-24T07:24:04.562Z,99543.19
2018-03-24T07:26:32.101Z,99539.55
2018-03-24T07:28:59.680Z,99539.35
2018-03-24T07:31:27.235Z,99537.47
2018-03-24T07:33:54.755Z,99539.36
2018-03-24T07:36:22.410Z,99540.76
2018-03-24T07:38:50.042Z,99540.77
2018-03-24T07:41:17.644Z,99531.80
2018-03-24T07:43:45.235Z,99541.09
2018-03-24T07:46:13.522Z,99532.59
2018-03-24T07:48:41.047Z,99541.23
2018-03-24T07:51:09.379Z,99543.78
2018-03-24T07:53:36.992Z,99538.03
2018-03-24T07:56:04.570Z,99539.16
2018-03-24T07:58:32.120Z,99536.50
2018-03-24T08:01:00.689Z,99530.64
2018-03-24T08:03:28.233Z,99529.89
2018-03-24T08:05:55.766Z,99530.53
2018-03-24T08:08:24.190Z,99528.37
2018-03-24T08:10:51.853Z,99536.80
2018-03-24T08:13:19.985Z,99529.89
2018-03-24T08:15:47.517Z,99535.30
2018-03-24T08:18:15.954Z,99539.44
2018-03-24T08:20:43.473Z,99536.95
2018-03-24T08:23:11.443Z,99535.69
2018-03-24T08:25:38.967Z,99547.70
2018-03-24T08:28:06.758Z,99543.17
2018-03-24T08:30:34.441Z,99549.47
2018-03-24T08:33:02.016Z,99532.94
2018-03-24T08:35:30.104Z,99543.94
2018-03-24T08:37:57.668Z,99547.77
2018-03-24T08:40:25.182Z,99550.63
2018-03-24T08:42:52.731Z,99551.89
2018-03-24T08:45:21.917Z,99550.66
2018-03-24T08:47:49.452Z,99551.11
2018-03-24T08:50:17.610Z,99556.30
2018-03-24T08:52:45.671Z,99556.58
2018-03-24T08:55:13.241Z,99552.91
2018-03-24T08:57:40.768Z,99551.71
2018-03-24T09:00:09.058Z,99556.64
2018-03-24T09:02:37.460Z,99558.34
2018-03-24T09:05:05.254Z,99557.86
2018-03-24T09:07:32.844Z,99554.84
2018-03-24T09:10:01.046Z,99552.78
2018-03-24T09:12:29.245Z,99552.78
2018-03-24T09:14:57.415Z,99546.05
2018-03-24T09:17:24.966Z,99545.54
2018-03-24T09:19:53.052Z,99543.21
2018-03-24T09:22:20.638Z,99536.06
2018-03-24T09:24:48.218Z,99545.19
2018-03-24T09:27:15.777Z,99546.55
2018-03-24T09:29:43.325Z,99548.61
2018-03-24T09:32:10.924Z,99544.25
2018-03-24T09:34:38.569Z,99550.86
2018-03-24T09:37:06.863Z,99556.30
2018-03-24T09:39:35.050Z,99544.88
2018-03-24T09:42:02.612Z,99537.25
2018-03-24T09:44:30.978Z,99541.95
2018-03-24T09:46:58.536Z,99531.95
2018-03-24T09:49:26.056Z,99536.86
2018-03-24T09:51:54.172Z,99537.69
2018-03-24T09:54:21.720Z,99546.48
2018-03-24T09:56:49.257Z,99538.72
2018-03-24T09:59:16.820Z,99536.55
2018-03-24T10:01:45.620Z,99535.32
2018-03-24T10:04:13.216Z,99546.18
2018-03-24T10:06:40.772Z,99543.53
2018-03-24T10:09:09.178Z,99543.31
2018-03-24T10:11:37.384Z,99541.78
2018-03-24T10:14:05.008Z,99542.36
2018-03-24T10:16:33.369Z,99538.39
2018-03-24T10:19:01.733Z,99538.27
2018-03-24T10:21:45.397Z,99536.53
2018-03-24T10:24:20.460Z,99534.91
2018-03-24T10:26:48.024Z,99538.80
2018-03-24T10:29:15.584Z,99534.31
2018-03-24T10:31:43.145Z,99535.63
2018-03-24T10:34:10.774Z,99541.48
2018-03-24T10:36:38.322Z,99541.58
2018-03-24T10:39:06.194Z,99547.52
2018-03-24T10:41:33.772Z,99545.06
2018-03-24T10:44:01.717Z,99537.68
2018-03-24T10:46:29.734Z,99537.88
2018-03-24T10:48:57.270Z,99538.72
2018-03-24T10:51:25.532Z,99535.53
2018-03-24T10:53:53.151Z,99529.48
2018-03-24T10:56:21.255Z,99530.48
2018-03-24T10:58:48.858Z,99532.12
2018-03-24T11:01:25.554Z,99527.58
2018-03-24T11:03:53.131Z,99526.55
2018-03-24T11:06:21.036Z,99528.46
2018-03-24T11:08:49.199Z,99523.84
2018-03-24T11:11:16.864Z,99524.24
2018-03-24T11:13:45.002Z,99532.81
2018-03-24T11:16:13.096Z,99529.73
2018-03-24T11:18:41.192Z,99533.89
2018-03-24T11:21:08.716Z,99519.11
2018-03-24T11:23:36.391Z,99524.91
2018-03-24T11:26:03.967Z,99518.22
2018-03-24T11:28:31.519Z,99522.96
2018-03-24T11:30:59.188Z,99518.05
2018-03-24T11:33:26.876Z,99518.31
2018-03-24T11:35:54.396Z,99521.66
2018-03-24T11:38:22.031Z,99520.45
2018-03-24T11:40:49.604Z,99519.81
2018-03-24T11:43:17.496Z,99509.59
2018-03-24T11:45:45.645Z,99506.91
2018-03-24T11:48:13.180Z,99501.94
2018-03-24T11:50:41.194Z,99501.95
2018-03-24T11:53:09.548Z,99503.80
2018-03-24T11:55:37.060Z,99502.36
2018-03-24T11:58:04.908Z,99503.67
2018-03-24T12:00:33.248Z,99505.37
2018-03-24T12:03:00.830Z,99491.92
2018-03-24T12:05:29.183Z,99493.44
2018-03-24T12:07:56.727Z,99493.02
2018-03-24T12:10:26.046Z,99486.19
2018-03-24T12:12:54.220Z,99498.80
2018-03-24T12:15:22.285Z,99496.50
2018-03-24T12:17:50.669Z,99498.56
2018-03-24T12:20:18.185Z,99492.00
2018-03-24T12:22:46.228Z,99495.27
2018-03-24T12:25:13.761Z,99496.66
2018-03-24T12:27:41.272Z,99490.69
2018-03-24T12:30:08.874Z,99489.53
2018-03-24T12:32:36.549Z,99485.88
2018-03-24T12:35:04.080Z,99495.94
2018-03-24T12:37:31.635Z,99488.39
2018-03-24T12:39:59.163Z,99480.48
2018-03-24T12:42:26.681Z,99478.23
2018-03-24T12:44:54.870Z,99473.32
2018-03-24T12:47:22.564Z,99468.45
2018-03-24T12:49:50.106Z,99475.37
2018-03-24T12:52:18.164Z,99475.66
2018-03-24T12:54:45.694Z,99472.84
2018-03-24T12:57:13.223Z,99475.50
2018-03-24T12:59:41.329Z,99476.86
2018-03-24T13:02:09.775Z,99473.78
2018-03-24T13:04:37.301Z,99479.31
2018-03-24T13:07:05.472Z,99482.86
2018-03-24T13:09:33.608Z,99476.55
2018-03-24T13:12:01.853Z,99471.62
2018-03-24T13:14:29.383Z,99479.70
2018-03-24T13:16:56.899Z,99478.61
2018-03-24T13:19:25.089Z,99489.73
2018-03-24T13:21:52.818Z,99486.46
2018-03-24T13:24:20.363Z,99489.55
2018-03-24T13:26:47.907Z,99488.30
2018-03-24T13:29:15.429Z,99496.11
2018-03-24T13:31:42.948Z,99497.11
2018-03-24T13:34:10.506Z,99499.22
2018-03-24T13:36:38.024Z,99497.63
2018-03-24T13:39:05.710Z,99493.27
2018-03-24T13:41:33.282Z,99496.22
2018-03-24T13:44:00.848Z,99496.95
2018-03-24T13:46:29.040Z,99501.22
2018-03-24T13:48:57.219Z,99502.47
2018-03-24T13:51:25.318Z,99499.81
2018-03-24T13:53:52.848Z,99498.02
2018-03-24T13:56:20.420Z,99492.39
2018-03-24T13:58:47.993Z,99497.54
2018-03-24T14:01:16.647Z,99495.03
2018-03-24T14:03:44.242Z,99498.44
2018-03-24T14:06:11.816Z,99498.70
2018-03-24T14:08:39.893Z,99499.73
2018-03-24T14:11:07.413Z,99495.12
2018-03-24T14:13:35.789Z,99494.30
2018-03-24T14:16:03.371Z,99495.58
2018-03-24T14:18:31.869Z,99492.30
2018-03-24T14:20:59.401Z,99493.64
2018-03-24T14:23:26.999Z,99492.92
2018-03-24T14:25:54.556Z,99486.86
2018-03-24T14:28:22.354Z,99494.41
2018-03-24T14:30:49.926Z,99491.73
2018-03-24T14:33:17.584Z,99495.42
2018-03-24T14:35:45.133Z,99489.31
2018-03-24T14:38:12.681Z,99489.93
2018-03-24T14:40:40.329Z,99489.07
2018-03-24T14:43:07.929Z,99479.02
2018-03-24T14:45:36.064Z,99484.13
2018-03-24T14:48:03.601Z,99473.75
2018-03-24T14:50:31.696Z,99478.38
2018-03-24T14:53:00.064Z,99473.65
2018-03-24T14:55:27.599Z,99479.39
2018-03-24T14:57:55.128Z,99480.53
2018-03-24T15:00:23.516Z,99487.73
2018-03-24T15:02:51.052Z,99481.43
2018-03-24T15:05:19.853Z,99477.17
2018-03-24T15:07:47.443Z,99478.20
2018-03-24T15:10:15.424Z,99479.24
2018-03-24T15:12:43.484Z,99472.20
2018-03-24T15:15:11.006Z,99473.74
2018-03-24T15:17:38.729Z,99478.77
2018-03-24T15:20:06.974Z,99470.88
2018-03-24T15:22:35.161Z,99478.88
2018-03-24T15:25:02.699Z,99477.75
2018-03-24T15:27:30.292Z,99466.82
2018-03-24T15:30:09.811Z,99467.54
2018-03-24T15:32:49.619Z,99470.98
2018-03-24T15:35:29.674Z,99477.34
2018-03-24T15:37:57.261Z,99480.42
2018-03-24T15:40:24.853Z,99476.32
2018-03-24T15:42:52.428Z,99476.36
2018-03-24T15:45:20.700Z,99471.14
2018-03-24T15:47:48.253Z,99469.41
2018-03-24T15:50:16.217Z,99471.17
2018-03-24T15:52:44.453Z,99476.33
2018-03-24T15:55:12.052Z,99471.63
2018-03-24T15:57:39.569Z,99467.56
2018-03-24T16:00:08.178Z,99477.58
2018-03-24T16:02:36.588Z,99472.89
2018-03-24T16:05:04.296Z,99475.34
2018-03-24T16:07:31.829Z,99478.08
2018-03-24T16:09:59.927Z,99473.49
2018-03-24T16:12:28.008Z,99482.69
2018-03-24T16:14:55.544Z,99476.05
2018-03-24T16:17:23.127Z,99476.74
2018-03-24T16:19:51.328Z,99482.56
2018-03-24T16:22:19.497Z,99482.78
2018-03-24T16:24:47.032Z,99477.23
2018-03-24T16:27:14.711Z,99487.07
2018-03-24T16:32:40.204Z,99495.63
2018-03-24T16:35:07.917Z,99491.73
2018-03-24T16:37:35.488Z,99491.84
2018-03-24T16:40:03.793Z,99497.25
2018-03-24T16:42:31.343Z,99490.98
2018-03-24T16:44:59.348Z,99491.80
2018-03-24T16:47:26.868Z,99490.02
2018-03-24T16:49:55.319Z,99492.98
2018-03-24T16:52:23.881Z,99492.02
2018-03-24T16:54:51.434Z,99499.47
2018-03-24T16:57:18.960Z,99504.94
2018-03-24T16:59:47.042Z,99497.97
2018-03-24T17:02:14.580Z,99495.16
2018-03-24T17:04:42.211Z,99503.84
2018-03-24T17:07:09.774Z,99503.19
2018-03-24T17:09:38.236Z,99493.26
2018-03-24T17:12:06.910Z,99493.95
2018-03-24T17:14:34.442Z,99500.88
2018-03-24T17:17:02.104Z,99499.14
2018-03-24T17:19:30.409Z,99500.45
2018-03-24T17:21:58.514Z,99505.63
2018-03-24T17:24:26.058Z,99507.98
2018-03-24T17:26:53.621Z,99509.08
2018-03-24T17:29:21.500Z,99514.45
2018-03-24T17:31:49.068Z,99517.91
2018-03-24T17:34:16.635Z,99518.59
2018-03-24T17:36:44.246Z,99517.94
2018-03-24T17:39:12.559Z,99520.59
2018-03-24T17:41:40.105Z,99513.03
2018-03-24T17:44:07.868Z,99520.59
2018-03-24T17:46:36.235Z,99522.42
2018-03-24T17:49:03.807Z,99525.77
2018-03-24T17:51:32.061Z,99535.13
2018-03-24T17:54:00.456Z,99545.00
2018-03-24T17:56:28.015Z,99532.84
2018-03-24T17:58:55.559Z,99537.55
2018-03-24T18:01:23.806Z,99537.73
2018-03-24T18:03:51.392Z,99542.00
2018-03-24T18:06:19.479Z,99540.27
2018-03-24T18:08:47.632Z,99545.79
2018-03-24T18:11:15.333Z,99543.95
2018-03-24T18:13:43.394Z,99545.92
2018-03-24T18:16:10.958Z,99545.92
2018-03-24T18:18:39.353Z,99540.20
2018-03-24T18:21:07.896Z,99532.24
2018-03-24T18:23:35.492Z,99531.29
2018-03-24T18:26:03.074Z,99528.09
2018-03-24T18:28:30.641Z,99527.33
2018-03-24T18:30:58.165Z,99532.23
2018-03-24T18:33:25.697Z,99531.37
2018-03-24T18:35:54.174Z,99531.84
2018-03-24T18:38:21.892Z,99530.78
2018-03-24T18:40:49.440Z,99530.59
2018-03-24T18:43:17.007Z,99527.63
2018-03-24T18:45:45.884Z,99528.73
2018-03-24T18:48:13.427Z,99538.33
2018-03-24T18:50:41.677Z,99543.82
2018-03-24T18:53:09.893Z,99540.12
2018-03-24T18:55:37.737Z,99549.59
2018-03-24T19:01:03.989Z,99550.87
2018-03-24T19:03:31.516Z,99557.09
2018-03-24T19:05:59.776Z,99555.25
2018-03-24T19:08:28.107Z,99557.27
2018-03-24T19:10:56.255Z,99555.94
2018-03-24T19:13:24.546Z,99551.83
2018-03-24T19:15:52.191Z,99549.00
2018-03-24T19:18:20.428Z,99556.95
2018-03-24T19:20:48.552Z,99555.30
2018-03-24T19:23:16.081Z,99556.81
2018-03-24T19:25:43.645Z,99557.87
2018-03-24T19:28:11.232Z,99559.52
2018-03-24T19:30:38.770Z,99557.68
2018-03-24T19:33:06.916Z,99559.83
2018-03-24T19:35:34.460Z,99568.80
2018-03-24T19:38:02.039Z,99568.44
2018-03-24T19:40:29.605Z,99568.84
2018-03-24T19:42:57.151Z,99561.62
2018-03-24T19:45:25.405Z,99559.15
2018-03-24T19:47:53.040Z,99565.55
2018-03-24T19:50:21.324Z,99562.08
2018-03-24T19:52:49.533Z,99563.95
2018-03-24T19:55:17.087Z,99561.26
2018-03-24T19:57:44.658Z,99563.41
2018-03-24T20:00:12.943Z,99563.41
2018-03-24T20:02:40.505Z,99564.83
2018-03-24T20:05:08.050Z,99566.24
2018-03-24T20:07:35.771Z,99569.21
2018-03-24T20:10:04.293Z,99572.82
2018-03-24T20:12:32.422Z,99560.11
2018-03-24T20:14:59.961Z,99573.37
2018-03-24T20:17:28.332Z,99568.20
2018-03-24T20:19:56.468Z,99563.62
2018-03-24T20:22:24.692Z,99565.64
2018-03-24T20:24:52.357Z,99565.50
2018-03-24T20:27:19.891Z,99562.25
2018-03-24T20:29:47.476Z,99567.05
2018-03-24T20:32:15.583Z,99565.41
2018-03-24T20:34:43.151Z,99564.17
2018-03-24T20:37:10.674Z,99559.24
2018-03-24T20:39:38.380Z,99568.39
2018-03-24T20:42:06.207Z,99568.71
2018-03-24T20:44:34.430Z,99569.30
2018-03-24T20:47:01.964Z,99570.54
2018-03-24T20:49:30.416Z,99569.52
2018-03-24T20:51:58.876Z,99563.31
2018-03-24T20:54:27.121Z,99564.41
2018-03-24T20:56:54.770Z,99566.02
2018-03-24T20:59:22.467Z,99561.20
2018-03-24T21:01:50.857Z,99565.95
2018-03-24T21:04:18.384Z,99564.63
2018-03-24T21:06:45.912Z,99558.64
2018-03-24T21:09:14.071Z,99555.58
2018-03-24T21:11:42.401Z,99564.81
2018-03-24T21:14:09.945Z,99562.98
2018-03-24T21:16:37.669Z,99568.93
2018-03-24T21:19:06.632Z,99569.47
2018-03-24T21:21:34.773Z,99573.04
2018-03-24T21:24:03.191Z,99574.14
2018-03-24T21:26:30.724Z,99579.26
2018-03-24T21:28:58.952Z,99577.85
2018-03-24T21:31:26.499Z,99571.73
2018-03-24T21:33:54.045Z,99569.98
2018-03-24T21:36:21.645Z,99573.19
2018-03-24T21:38:49.184Z,99572.36
2018-03-24T21:41:16.843Z,99574.92
2018-03-24T21:43:44.411Z,99574.92
2018-03-24T21:46:12.602Z,99573.09
2018-03-24T21:48:40.138Z,99572.69
2018-03-24T21:51:08.653Z,99573.41
2018-03-24T21:53:37.388Z,99575.66
2018-03-24T21:56:04.974Z,99569.84
2018-03-24T21:58:32.508Z,99567.84
2018-03-24T22:01:01.955Z,99566.28
2018-03-24T22:03:29.528Z,99570.17
2018-03-24T22:05:57.068Z,99568.34
2018-03-24T22:08:25.200Z,99572.09
2018-03-24T22:10:52.760Z,99567.98
2018-03-24T22:13:20.696Z,99568.58
2018-03-24T22:15:48.221Z,99564.69
2018-03-24T22:18:16.498Z,99567.25
2018-03-24T22:20:44.648Z,99563.17
2018-03-24T22:23:12.181Z,99561.85
2018-03-24T22:25:40.891Z,99562.40
2018-03-24T22:28:08.488Z,99558.23
2018-03-24T22:30:36.335Z,99566.42
2018-03-24T22:33:03.960Z,99560.61
2018-03-24T22:35:32.052Z,99559.61
2018-03-24T22:37:59.615Z,99560.84
2018-03-24T22:40:27.171Z,99555.94
2018-03-24T22:42:54.755Z,99554.20
2018-03-24T22:45:23.069Z,99563.90
2018-03-24T22:47:50.612Z,99553.11
2018-03-24T22:50:18.741Z,99553.30
2018-03-24T22:52:46.708Z,99554.20
2018-03-24T22:55:14.240Z,99558.78
2018-03-24T22:57:41.792Z,99562.53
2018-03-24T23:00:10.178Z,99561.80
2018-03-24T23:02:37.741Z,99557.00
2018-03-24T23:05:05.348Z,99569.25
2018-03-24T23:07:32.964Z,99564.41
2018-03-24T23:10:01.187Z,99561.56
2018-03-24T23:12:29.515Z,99566.78
2018-03-24T23:14:57.057Z,99563.59
2018-03-24T23:17:24.590Z,99559.61
2018-03-24T23:19:52.927Z,99557.38
2018-03-24T23:22:21.201Z,99551.79
2018-03-24T23:24:49.257Z,99553.20
2018-03-24T23:27:16.814Z,99557.50
2018-03-24T23:29:44.343Z,99559.73
2018-03-24T23:32:11.943Z,99560.02
2018-03-24T23:34:39.478Z,99559.28
2018-03-24T23:37:07.209Z,99558.46
2018-03-24T23:39:34.907Z,99555.81
2018-03-24T23:42:02.456Z,99554.67
2018-03-24T23:44:30.832Z,99554.35
2018-03-24T23:46:58.375Z,99551.16
2018-03-24T23:49:25.922Z,99554.53
2018-03-24T23:51:54.185Z,99554.16
2018-03-24T23:54:22.472Z,99551.10
2018-03-24T23:56:50.069Z,99541.82
2018-03-24T23:59:17.620Z,99543.23
